sensor_id;sensor_type;location;lat;lon;timestamp;P1;durP1;ratioP1;P2;durP2;ratioP2
41721;SDS011;27407;24.142;-110.310;2024-01-15T00:00:03;12.33;;;2.13;;
41721;SDS011;27407;24.142;-110.310;2024-01-15T00:02:30;82.53;;;7.03;;
41721;SDS011;27407;24.142;-110.310;2024-01-15T00:04:57;26.23;;;2.67;;
41721;SDS011;27407;24.142;-110.310;2024-01-15T00:07:23;79.20;;;6.57;;
41721;SDS011;27407;24.142;-110.310;2024-01-15T00:09:50;16.43;;;1.93;;
41721;SDS011;27407;24.142;-110.310;2024-01-15T00:12:16;23.13;;;2.00;;
41721;SDS011;27407;24.142;-110.310;2024-01-15T00:14:43;30.50;;;4.30;;
41721;SDS011;27407;24.142;-110.310;2024-01-15T00:17:10;18.03;;;2.80;;
41721;SDS011;27407;24.142;-110.310;2024-01-15T00:19:36;8.23;;;1.40;;
41721;SDS011;27407;24.142;-110.310;2024-01-15T00:22:03;5.27;;;1.50;;
41721;SDS011;27407;24.142;-110.310;2024-01-15T00:24:30;22.83;;;2.87;;
41721;SDS011;27407;24.142;-110.310;2024-01-15T00:26:56;14.43;;;2.73;;
41721;SDS011;27407;24.142;-110.310;2024-01-15T00:29:23;18.20;;;2.43;;
41721;SDS011;27407;24.142;-110.310;2024-01-15T00:31:50;11.80;;;1.87;;
41721;SDS011;27407;24.142;-110.310;2024-01-15T00:34:16;83.43;;;7.63;;
41721;SDS011;27407;24.142;-110.310;2024-01-15T00:36:43;11.37;;;1.93;;
41721;SDS011;27407;24.142;-110.310;2024-01-15T00:39:09;72.27;;;4.93;;
41721;SDS011;27407;24.142;-110.310;2024-01-15T00:41:36;9.30;;;2.10;;
41721;SDS011;27407;24.142;-110.310;2024-01-15T00:44:03;17.10;;;2.13;;
41721;SDS011;27407;24.142;-110.310;2024-01-15T00:46:30;28.67;;;2.80;;
41721;SDS011;27407;24.142;-110.310;2024-01-15T00:48:56;22.17;;;3.17;;
41721;SDS011;27407;24.142;-110.310;2024-01-15T00:51:23;52.87;;;5.83;;
41721;SDS011;27407;24.142;-110.310;2024-01-15T00:53:49;22.53;;;2.27;;
41721;SDS011;27407;24.142;-110.310;2024-01-15T00:56:16;34.10;;;3.33;;
41721;SDS011;27407;24.142;-110.310;2024-01-15T00:58:42;97.30;;;12.23;;
41721;SDS011;27407;24.142;-110.310;2024-01-15T01:01:09;23.70;;;5.03;;
41721;SDS011;27407;24.142;-110.310;2024-01-15T01:03:35;49.77;;;5.97;;
41721;SDS011;27407;24.142;-110.310;2024-01-15T01:06:02;38.17;;;7.30;;
41721;SDS011;27407;24.142;-110.310;2024-01-15T01:08:29;21.23;;;3.07;;
41721;SDS011;27407;24.142;-110.310;2024-01-15T01:10:56;45.43;;;4.33;;
41721;SDS011;27407;24.142;-110.310;2024-01-15T01:13:22;23.90;;;2.63;;
41721;SDS011;27407;24.142;-110.310;2024-01-15T01:15:49;36.63;;;4.43;;
41721;SDS011;27407;24.142;-110.310;2024-01-15T01:18:16;34.03;;;4.63;;
41721;SDS011;27407;24.142;-110.310;2024-01-15T01:20:42;63.33;;;6.37;;
41721;SDS011;27407;24.142;-110.310;2024-01-15T01:23:09;41.60;;;5.57;;
41721;SDS011;27407;24.142;-110.310;2024-01-15T01:25:36;152.90;;;11.97;;
41721;SDS011;27407;24.142;-110.310;2024-01-15T01:28:02;263.40;;;25.53;;
41721;SDS011;27407;24.142;-110.310;2024-01-15T01:30:29;233.50;;;22.80;;
41721;SDS011;27407;24.142;-110.310;2024-01-15T01:32:56;136.53;;;15.87;;
41721;SDS011;27407;24.142;-110.310;2024-01-15T01:35:22;165.67;;;15.00;;
41721;SDS011;27407;24.142;-110.310;2024-01-15T01:37:49;141.70;;;13.67;;
41721;SDS011;27407;24.142;-110.310;2024-01-15T01:40:16;124.13;;;12.07;;
41721;SDS011;27407;24.142;-110.310;2024-01-15T01:42:43;92.80;;;16.63;;
41721;SDS011;27407;24.142;-110.310;2024-01-15T01:45:10;90.77;;;16.83;;
41721;SDS011;27407;24.142;-110.310;2024-01-15T01:47:37;186.20;;;21.63;;
41721;SDS011;27407;24.142;-110.310;2024-01-15T01:50:04;197.97;;;22.00;;
41721;SDS011;27407;24.142;-110.310;2024-01-15T01:52:31;190.17;;;23.90;;
41721;SDS011;27407;24.142;-110.310;2024-01-15T01:55:00;152.67;;;23.93;;
41721;SDS011;27407;24.142;-110.310;2024-01-15T01:57:28;76.03;;;18.17;;
41721;SDS011;27407;24.142;-110.310;2024-01-15T01:59:55;110.53;;;20.07;;
41721;SDS011;27407;24.142;-110.310;2024-01-15T02:02:23;112.03;;;18.67;;
41721;SDS011;27407;24.142;-110.310;2024-01-15T02:04:51;108.50;;;15.83;;
41721;SDS011;27407;24.142;-110.310;2024-01-15T02:07:17;88.83;;;12.00;;
41721;SDS011;27407;24.142;-110.310;2024-01-15T02:09:44;95.17;;;11.33;;
41721;SDS011;27407;24.142;-110.310;2024-01-15T02:12:11;46.50;;;8.40;;
41721;SDS011;27407;24.142;-110.310;2024-01-15T02:14:38;35.37;;;6.70;;
41721;SDS011;27407;24.142;-110.310;2024-01-15T02:17:05;23.43;;;6.00;;
41721;SDS011;27407;24.142;-110.310;2024-01-15T02:19:32;60.07;;;8.23;;
41721;SDS011;27407;24.142;-110.310;2024-01-15T02:21:59;53.70;;;9.73;;
41721;SDS011;27407;24.142;-110.310;2024-01-15T02:24:25;64.83;;;9.60;;
41721;SDS011;27407;24.142;-110.310;2024-01-15T02:26:52;76.70;;;11.00;;
41721;SDS011;27407;24.142;-110.310;2024-01-15T02:29:20;50.23;;;11.27;;
41721;SDS011;27407;24.142;-110.310;2024-01-15T02:31:47;60.47;;;13.00;;
41721;SDS011;27407;24.142;-110.310;2024-01-15T02:34:13;79.17;;;11.93;;
41721;SDS011;27407;24.142;-110.310;2024-01-15T02:36:40;44.47;;;9.33;;
41721;SDS011;27407;24.142;-110.310;2024-01-15T02:39:07;72.23;;;12.13;;
41721;SDS011;27407;24.142;-110.310;2024-01-15T02:41:33;46.13;;;9.30;;
41721;SDS011;27407;24.142;-110.310;2024-01-15T02:44:00;47.87;;;7.60;;
41721;SDS011;27407;24.142;-110.310;2024-01-15T02:46:27;38.57;;;7.33;;
41721;SDS011;27407;24.142;-110.310;2024-01-15T02:48:53;49.53;;;8.63;;
41721;SDS011;27407;24.142;-110.310;2024-01-15T02:51:20;43.80;;;6.20;;
41721;SDS011;27407;24.142;-110.310;2024-01-15T02:53:47;36.20;;;5.73;;
41721;SDS011;27407;24.142;-110.310;2024-01-15T02:56:15;30.53;;;4.77;;
41721;SDS011;27407;24.142;-110.310;2024-01-15T02:58:41;27.50;;;4.33;;
41721;SDS011;27407;24.142;-110.310;2024-01-15T03:01:08;16.47;;;3.97;;
41721;SDS011;27407;24.142;-110.310;2024-01-15T03:03:34;26.33;;;4.30;;
41721;SDS011;27407;24.142;-110.310;2024-01-15T03:06:01;28.43;;;5.20;;
41721;SDS011;27407;24.142;-110.310;2024-01-15T03:08:28;25.37;;;4.60;;
41721;SDS011;27407;24.142;-110.310;2024-01-15T03:10:55;44.83;;;6.03;;
41721;SDS011;27407;24.142;-110.310;2024-01-15T03:13:22;26.73;;;5.20;;
41721;SDS011;27407;24.142;-110.310;2024-01-15T03:15:48;25.20;;;4.50;;
41721;SDS011;27407;24.142;-110.310;2024-01-15T03:18:15;23.93;;;3.93;;
41721;SDS011;27407;24.142;-110.310;2024-01-15T03:20:41;29.03;;;3.40;;
41721;SDS011;27407;24.142;-110.310;2024-01-15T03:23:08;33.37;;;4.83;;
41721;SDS011;27407;24.142;-110.310;2024-01-15T03:25:34;26.00;;;4.07;;
41721;SDS011;27407;24.142;-110.310;2024-01-15T03:28:01;29.90;;;3.77;;
41721;SDS011;27407;24.142;-110.310;2024-01-15T03:30:28;51.33;;;5.70;;
41721;SDS011;27407;24.142;-110.310;2024-01-15T03:32:54;24.73;;;3.47;;
41721;SDS011;27407;24.142;-110.310;2024-01-15T03:35:21;39.20;;;4.80;;
41721;SDS011;27407;24.142;-110.310;2024-01-15T03:37:47;16.23;;;3.13;;
41721;SDS011;27407;24.142;-110.310;2024-01-15T03:40:14;25.73;;;3.70;;
41721;SDS011;27407;24.142;-110.310;2024-01-15T03:42:41;23.03;;;3.30;;
41721;SDS011;27407;24.142;-110.310;2024-01-15T03:45:07;14.83;;;2.97;;
41721;SDS011;27407;24.142;-110.310;2024-01-15T03:47:34;16.13;;;3.43;;
41721;SDS011;27407;24.142;-110.310;2024-01-15T03:50:01;23.20;;;2.90;;
41721;SDS011;27407;24.142;-110.310;2024-01-15T03:52:27;12.83;;;2.50;;
41721;SDS011;27407;24.142;-110.310;2024-01-15T03:54:55;17.63;;;3.10;;
41721;SDS011;27407;24.142;-110.310;2024-01-15T03:57:21;22.90;;;3.43;;
41721;SDS011;27407;24.142;-110.310;2024-01-15T03:59:48;38.40;;;4.10;;
41721;SDS011;27407;24.142;-110.310;2024-01-15T04:02:14;24.23;;;3.87;;
41721;SDS011;27407;24.142;-110.310;2024-01-15T04:04:42;25.37;;;3.60;;
41721;SDS011;27407;24.142;-110.310;2024-01-15T04:07:09;25.90;;;3.70;;
41721;SDS011;27407;24.142;-110.310;2024-01-15T04:09:36;16.80;;;2.30;;
41721;SDS011;27407;24.142;-110.310;2024-01-15T04:12:03;15.80;;;2.33;;
41721;SDS011;27407;24.142;-110.310;2024-01-15T04:14:30;10.87;;;2.10;;
41721;SDS011;27407;24.142;-110.310;2024-01-15T04:16:56;17.87;;;2.40;;
41721;SDS011;27407;24.142;-110.310;2024-01-15T04:19:23;8.33;;;1.93;;
41721;SDS011;27407;24.142;-110.310;2024-01-15T04:21:50;83.03;;;6.90;;
41721;SDS011;27407;24.142;-110.310;2024-01-15T04:24:16;25.70;;;3.03;;
41721;SDS011;27407;24.142;-110.310;2024-01-15T04:26:43;15.27;;;2.40;;
41721;SDS011;27407;24.142;-110.310;2024-01-15T04:29:10;12.53;;;2.23;;
41721;SDS011;27407;24.142;-110.310;2024-01-15T04:31:37;26.70;;;2.40;;
41721;SDS011;27407;24.142;-110.310;2024-01-15T04:34:04;9.27;;;2.03;;
41721;SDS011;27407;24.142;-110.310;2024-01-15T04:36:30;20.67;;;2.83;;
41721;SDS011;27407;24.142;-110.310;2024-01-15T04:38:57;20.17;;;2.20;;
41721;SDS011;27407;24.142;-110.310;2024-01-15T04:41:23;15.67;;;1.87;;
41721;SDS011;27407;24.142;-110.310;2024-01-15T04:43:50;12.37;;;1.50;;
41721;SDS011;27407;24.142;-110.310;2024-01-15T04:46:16;6.80;;;1.60;;
41721;SDS011;27407;24.142;-110.310;2024-01-15T04:48:43;13.20;;;1.50;;
41721;SDS011;27407;24.142;-110.310;2024-01-15T04:51:10;16.70;;;2.20;;
41721;SDS011;27407;24.142;-110.310;2024-01-15T04:53:36;11.73;;;1.87;;
41721;SDS011;27407;24.142;-110.310;2024-01-15T04:56:03;5.67;;;1.30;;
41721;SDS011;27407;24.142;-110.310;2024-01-15T04:58:30;8.47;;;1.23;;
41721;SDS011;27407;24.142;-110.310;2024-01-15T05:00:56;7.53;;;1.50;;
41721;SDS011;27407;24.142;-110.310;2024-01-15T05:03:23;4.17;;;1.10;;
41721;SDS011;27407;24.142;-110.310;2024-01-15T05:05:49;4.13;;;1.00;;
41721;SDS011;27407;24.142;-110.310;2024-01-15T05:08:16;3.80;;;1.07;;
41721;SDS011;27407;24.142;-110.310;2024-01-15T05:10:43;5.33;;;1.20;;
41721;SDS011;27407;24.142;-110.310;2024-01-15T05:13:10;6.93;;;1.00;;
41721;SDS011;27407;24.142;-110.310;2024-01-15T05:15:36;7.00;;;0.90;;
41721;SDS011;27407;24.142;-110.310;2024-01-15T05:18:03;16.17;;;1.33;;
41721;SDS011;27407;24.142;-110.310;2024-01-15T05:20:30;5.53;;;1.13;;
41721;SDS011;27407;24.142;-110.310;2024-01-15T05:22:56;6.33;;;1.40;;
41721;SDS011;27407;24.142;-110.310;2024-01-15T05:25:23;5.03;;;1.10;;
41721;SDS011;27407;24.142;-110.310;2024-01-15T05:27:50;11.53;;;1.50;;
41721;SDS011;27407;24.142;-110.310;2024-01-15T05:30:16;8.43;;;1.43;;
41721;SDS011;27407;24.142;-110.310;2024-01-15T05:32:43;10.13;;;1.20;;
41721;SDS011;27407;24.142;-110.310;2024-01-15T05:35:10;11.17;;;2.27;;
41721;SDS011;27407;24.142;-110.310;2024-01-15T05:37:36;41.40;;;3.13;;
41721;SDS011;27407;24.142;-110.310;2024-01-15T05:40:04;9.77;;;2.13;;
41721;SDS011;27407;24.142;-110.310;2024-01-15T05:42:31;11.93;;;1.93;;
41721;SDS011;27407;24.142;-110.310;2024-01-15T05:44:57;11.93;;;2.33;;
41721;SDS011;27407;24.142;-110.310;2024-01-15T05:47:25;17.57;;;2.27;;
41721;SDS011;27407;24.142;-110.310;2024-01-15T05:49:51;10.13;;;1.73;;
41721;SDS011;27407;24.142;-110.310;2024-01-15T05:52:18;18.20;;;2.03;;
41721;SDS011;27407;24.142;-110.310;2024-01-15T05:54:46;32.20;;;3.30;;
41721;SDS011;27407;24.142;-110.310;2024-01-15T05:57:13;11.90;;;1.97;;
41721;SDS011;27407;24.142;-110.310;2024-01-15T05:59:39;8.30;;;1.43;;
41721;SDS011;27407;24.142;-110.310;2024-01-15T06:02:06;6.27;;;1.10;;
41721;SDS011;27407;24.142;-110.310;2024-01-15T06:04:32;9.77;;;1.40;;
41721;SDS011;27407;24.142;-110.310;2024-01-15T06:06:59;10.13;;;0.97;;
41721;SDS011;27407;24.142;-110.310;2024-01-15T06:09:26;10.57;;;1.63;;
41721;SDS011;27407;24.142;-110.310;2024-01-15T06:11:53;4.17;;;1.50;;
41721;SDS011;27407;24.142;-110.310;2024-01-15T06:14:20;6.77;;;0.90;;
41721;SDS011;27407;24.142;-110.310;2024-01-15T06:16:47;9.03;;;1.10;;
41721;SDS011;27407;24.142;-110.310;2024-01-15T06:19:14;6.70;;;1.03;;
41721;SDS011;27407;24.142;-110.310;2024-01-15T06:21:41;10.33;;;1.20;;
41721;SDS011;27407;24.142;-110.310;2024-01-15T06:24:07;11.00;;;1.10;;
41721;SDS011;27407;24.142;-110.310;2024-01-15T06:26:35;5.67;;;1.47;;
41721;SDS011;27407;24.142;-110.310;2024-01-15T06:29:02;3.80;;;0.60;;
41721;SDS011;27407;24.142;-110.310;2024-01-15T06:31:28;6.10;;;1.00;;
41721;SDS011;27407;24.142;-110.310;2024-01-15T06:33:55;8.87;;;1.57;;
41721;SDS011;27407;24.142;-110.310;2024-01-15T06:36:22;8.17;;;0.90;;
41721;SDS011;27407;24.142;-110.310;2024-01-15T06:38:48;4.93;;;0.73;;
41721;SDS011;27407;24.142;-110.310;2024-01-15T06:41:15;11.80;;;1.00;;
41721;SDS011;27407;24.142;-110.310;2024-01-15T06:43:41;12.17;;;1.20;;
41721;SDS011;27407;24.142;-110.310;2024-01-15T06:46:08;6.70;;;0.90;;
41721;SDS011;27407;24.142;-110.310;2024-01-15T06:48:34;9.20;;;0.93;;
41721;SDS011;27407;24.142;-110.310;2024-01-15T06:51:01;22.83;;;2.03;;
41721;SDS011;27407;24.142;-110.310;2024-01-15T06:53:27;10.50;;;1.43;;
41721;SDS011;27407;24.142;-110.310;2024-01-15T06:55:54;6.60;;;1.30;;
41721;SDS011;27407;24.142;-110.310;2024-01-15T06:58:21;1.93;;;0.77;;
41721;SDS011;27407;24.142;-110.310;2024-01-15T07:00:47;6.63;;;1.03;;
41721;SDS011;27407;24.142;-110.310;2024-01-15T07:03:14;7.57;;;1.23;;
41721;SDS011;27407;24.142;-110.310;2024-01-15T07:05:40;6.63;;;1.17;;
41721;SDS011;27407;24.142;-110.310;2024-01-15T07:08:07;12.00;;;0.97;;
41721;SDS011;27407;24.142;-110.310;2024-01-15T07:10:34;6.00;;;1.00;;
41721;SDS011;27407;24.142;-110.310;2024-01-15T07:13:00;5.93;;;1.00;;
41721;SDS011;27407;24.142;-110.310;2024-01-15T07:15:27;7.13;;;1.20;;
41721;SDS011;27407;24.142;-110.310;2024-01-15T07:17:54;1.70;;;0.60;;
41721;SDS011;27407;24.142;-110.310;2024-01-15T07:20:20;2.80;;;0.87;;
41721;SDS011;27407;24.142;-110.310;2024-01-15T07:22:47;8.07;;;1.00;;
41721;SDS011;27407;24.142;-110.310;2024-01-15T07:25:14;7.87;;;0.80;;
41721;SDS011;27407;24.142;-110.310;2024-01-15T07:27:41;4.47;;;0.73;;
41721;SDS011;27407;24.142;-110.310;2024-01-15T07:30:12;6.77;;;0.90;;
41721;SDS011;27407;24.142;-110.310;2024-01-15T07:32:39;4.80;;;1.03;;
41721;SDS011;27407;24.142;-110.310;2024-01-15T07:35:08;1.20;;;0.50;;
41721;SDS011;27407;24.142;-110.310;2024-01-15T07:37:35;3.00;;;0.73;;
41721;SDS011;27407;24.142;-110.310;2024-01-15T07:40:02;1.47;;;0.73;;
41721;SDS011;27407;24.142;-110.310;2024-01-15T07:42:29;2.73;;;0.63;;
41721;SDS011;27407;24.142;-110.310;2024-01-15T07:44:56;5.03;;;0.90;;
41721;SDS011;27407;24.142;-110.310;2024-01-15T07:47:22;7.23;;;0.80;;
41721;SDS011;27407;24.142;-110.310;2024-01-15T07:49:49;5.00;;;0.80;;
41721;SDS011;27407;24.142;-110.310;2024-01-15T07:52:16;2.07;;;0.70;;
41721;SDS011;27407;24.142;-110.310;2024-01-15T07:54:42;4.80;;;1.17;;
41721;SDS011;27407;24.142;-110.310;2024-01-15T07:57:10;2.03;;;0.50;;
41721;SDS011;27407;24.142;-110.310;2024-01-15T07:59:36;2.43;;;0.80;;
41721;SDS011;27407;24.142;-110.310;2024-01-15T08:02:03;6.20;;;1.43;;
41721;SDS011;27407;24.142;-110.310;2024-01-15T08:04:30;3.03;;;0.60;;
41721;SDS011;27407;24.142;-110.310;2024-01-15T08:06:56;5.90;;;0.80;;
41721;SDS011;27407;24.142;-110.310;2024-01-15T08:09:23;8.63;;;1.07;;
41721;SDS011;27407;24.142;-110.310;2024-01-15T08:11:50;8.40;;;1.03;;
41721;SDS011;27407;24.142;-110.310;2024-01-15T08:14:17;8.20;;;1.30;;
41721;SDS011;27407;24.142;-110.310;2024-01-15T08:16:44;5.37;;;0.80;;
41721;SDS011;27407;24.142;-110.310;2024-01-15T08:19:11;7.53;;;0.90;;
41721;SDS011;27407;24.142;-110.310;2024-01-15T08:21:37;6.87;;;1.10;;
41721;SDS011;27407;24.142;-110.310;2024-01-15T08:24:04;6.50;;;1.13;;
41721;SDS011;27407;24.142;-110.310;2024-01-15T08:26:31;6.20;;;0.83;;
41721;SDS011;27407;24.142;-110.310;2024-01-15T08:28:58;5.07;;;1.40;;
41721;SDS011;27407;24.142;-110.310;2024-01-15T08:31:25;4.80;;;1.50;;
41721;SDS011;27407;24.142;-110.310;2024-01-15T08:33:52;8.13;;;1.30;;
41721;SDS011;27407;24.142;-110.310;2024-01-15T08:36:19;10.33;;;0.93;;
41721;SDS011;27407;24.142;-110.310;2024-01-15T08:38:45;5.07;;;0.90;;
41721;SDS011;27407;24.142;-110.310;2024-01-15T08:41:12;3.73;;;0.80;;
41721;SDS011;27407;24.142;-110.310;2024-01-15T08:43:39;4.30;;;1.00;;
41721;SDS011;27407;24.142;-110.310;2024-01-15T08:46:06;7.50;;;1.17;;
41721;SDS011;27407;24.142;-110.310;2024-01-15T08:48:32;8.37;;;0.90;;
41721;SDS011;27407;24.142;-110.310;2024-01-15T08:50:59;6.10;;;1.30;;
41721;SDS011;27407;24.142;-110.310;2024-01-15T08:53:26;11.60;;;1.30;;
41721;SDS011;27407;24.142;-110.310;2024-01-15T08:55:53;7.57;;;1.10;;
41721;SDS011;27407;24.142;-110.310;2024-01-15T08:58:19;7.30;;;1.03;;
41721;SDS011;27407;24.142;-110.310;2024-01-15T09:00:46;6.37;;;0.90;;
41721;SDS011;27407;24.142;-110.310;2024-01-15T09:03:13;71.33;;;5.90;;
41721;SDS011;27407;24.142;-110.310;2024-01-15T09:05:39;7.60;;;1.47;;
41721;SDS011;27407;24.142;-110.310;2024-01-15T09:08:06;7.47;;;1.13;;
41721;SDS011;27407;24.142;-110.310;2024-01-15T09:10:32;7.30;;;1.10;;
41721;SDS011;27407;24.142;-110.310;2024-01-15T09:12:59;6.67;;;1.00;;
41721;SDS011;27407;24.142;-110.310;2024-01-15T09:15:26;6.10;;;0.90;;
41721;SDS011;27407;24.142;-110.310;2024-01-15T09:17:53;6.07;;;0.87;;
41721;SDS011;27407;24.142;-110.310;2024-01-15T09:20:19;6.93;;;0.97;;
41721;SDS011;27407;24.142;-110.310;2024-01-15T09:22:46;12.47;;;1.13;;
41721;SDS011;27407;24.142;-110.310;2024-01-15T09:25:12;2.57;;;0.77;;
41721;SDS011;27407;24.142;-110.310;2024-01-15T09:27:39;5.93;;;1.03;;
41721;SDS011;27407;24.142;-110.310;2024-01-15T09:30:06;3.87;;;0.80;;
41721;SDS011;27407;24.142;-110.310;2024-01-15T09:32:33;6.80;;;0.80;;
41721;SDS011;27407;24.142;-110.310;2024-01-15T09:35:00;5.17;;;1.10;;
41721;SDS011;27407;24.142;-110.310;2024-01-15T09:37:27;2.37;;;0.87;;
41721;SDS011;27407;24.142;-110.310;2024-01-15T09:39:53;8.17;;;1.20;;
41721;SDS011;27407;24.142;-110.310;2024-01-15T09:42:21;5.00;;;0.50;;
41721;SDS011;27407;24.142;-110.310;2024-01-15T09:44:52;7.40;;;1.03;;
41721;SDS011;27407;24.142;-110.310;2024-01-15T09:47:19;5.50;;;1.13;;
41721;SDS011;27407;24.142;-110.310;2024-01-15T09:49:47;2.67;;;0.80;;
41721;SDS011;27407;24.142;-110.310;2024-01-15T09:52:14;7.73;;;1.30;;
41721;SDS011;27407;24.142;-110.310;2024-01-15T09:54:43;10.47;;;1.13;;
41721;SDS011;27407;24.142;-110.310;2024-01-15T09:57:10;4.43;;;0.83;;
41721;SDS011;27407;24.142;-110.310;2024-01-15T09:59:37;4.53;;;0.77;;
41721;SDS011;27407;24.142;-110.310;2024-01-15T10:02:05;8.40;;;1.30;;
41721;SDS011;27407;24.142;-110.310;2024-01-15T10:04:33;8.50;;;1.20;;
41721;SDS011;27407;24.142;-110.310;2024-01-15T10:07:00;9.50;;;1.10;;
41721;SDS011;27407;24.142;-110.310;2024-01-15T10:09:27;2.67;;;0.70;;
41721;SDS011;27407;24.142;-110.310;2024-01-15T10:11:54;6.77;;;1.10;;
41721;SDS011;27407;24.142;-110.310;2024-01-15T10:14:20;5.63;;;1.07;;
41721;SDS011;27407;24.142;-110.310;2024-01-15T10:16:47;4.93;;;0.87;;
41721;SDS011;27407;24.142;-110.310;2024-01-15T10:19:14;6.70;;;1.00;;
41721;SDS011;27407;24.142;-110.310;2024-01-15T10:21:40;2.93;;;0.93;;
41721;SDS011;27407;24.142;-110.310;2024-01-15T10:24:07;5.73;;;1.00;;
41721;SDS011;27407;24.142;-110.310;2024-01-15T10:26:33;7.37;;;0.90;;
41721;SDS011;27407;24.142;-110.310;2024-01-15T10:29:00;3.13;;;0.70;;
41721;SDS011;27407;24.142;-110.310;2024-01-15T10:31:27;5.60;;;1.10;;
41721;SDS011;27407;24.142;-110.310;2024-01-15T10:33:54;7.23;;;1.07;;
41721;SDS011;27407;24.142;-110.310;2024-01-15T10:36:35;11.73;;;1.20;;
41721;SDS011;27407;24.142;-110.310;2024-01-15T10:39:01;9.30;;;0.90;;
41721;SDS011;27407;24.142;-110.310;2024-01-15T10:41:28;7.50;;;1.00;;
41721;SDS011;27407;24.142;-110.310;2024-01-15T10:43:55;3.13;;;1.10;;
41721;SDS011;27407;24.142;-110.310;2024-01-15T10:46:21;4.93;;;0.93;;
41721;SDS011;27407;24.142;-110.310;2024-01-15T10:48:48;4.70;;;0.83;;
41721;SDS011;27407;24.142;-110.310;2024-01-15T10:51:15;5.97;;;0.90;;
41721;SDS011;27407;24.142;-110.310;2024-01-15T10:53:41;5.33;;;1.20;;
41721;SDS011;27407;24.142;-110.310;2024-01-15T10:56:11;6.20;;;0.80;;
41721;SDS011;27407;24.142;-110.310;2024-01-15T10:58:39;12.10;;;1.00;;
41721;SDS011;27407;24.142;-110.310;2024-01-15T11:01:07;1.80;;;0.77;;
41721;SDS011;27407;24.142;-110.310;2024-01-15T11:03:34;5.53;;;1.00;;
41721;SDS011;27407;24.142;-110.310;2024-01-15T11:06:02;2.37;;;0.53;;
41721;SDS011;27407;24.142;-110.310;2024-01-15T11:08:29;2.70;;;0.90;;
41721;SDS011;27407;24.142;-110.310;2024-01-15T11:10:56;5.30;;;1.23;;
41721;SDS011;27407;24.142;-110.310;2024-01-15T11:13:39;9.33;;;0.93;;
41721;SDS011;27407;24.142;-110.310;2024-01-15T11:16:08;5.27;;;1.10;;
41721;SDS011;27407;24.142;-110.310;2024-01-15T11:18:41;4.90;;;0.83;;
41721;SDS011;27407;24.142;-110.310;2024-01-15T11:29:04;7.10;;;0.70;;
41721;SDS011;27407;24.142;-110.310;2024-01-15T11:34:08;4.70;;;0.90;;
41721;SDS011;27407;24.142;-110.310;2024-01-15T11:41:57;5.33;;;0.93;;
41721;SDS011;27407;24.142;-110.310;2024-01-15T11:44:25;10.43;;;1.00;;
41721;SDS011;27407;24.142;-110.310;2024-01-15T11:52:11;2.87;;;0.70;;
41721;SDS011;27407;24.142;-110.310;2024-01-15T11:54:40;8.33;;;1.87;;
41721;SDS011;27407;24.142;-110.310;2024-01-15T12:00:05;3.50;;;1.03;;
41721;SDS011;27407;24.142;-110.310;2024-01-15T12:02:34;4.80;;;1.33;;
41721;SDS011;27407;24.142;-110.310;2024-01-15T12:05:01;10.03;;;1.10;;
41721;SDS011;27407;24.142;-110.310;2024-01-15T12:07:28;5.83;;;0.63;;
41721;SDS011;27407;24.142;-110.310;2024-01-15T12:09:55;8.13;;;0.87;;
41721;SDS011;27407;24.142;-110.310;2024-01-15T12:12:27;10.77;;;1.57;;
41721;SDS011;27407;24.142;-110.310;2024-01-15T12:15:14;8.93;;;0.80;;
41721;SDS011;27407;24.142;-110.310;2024-01-15T12:17:41;7.30;;;0.70;;
41721;SDS011;27407;24.142;-110.310;2024-01-15T12:20:07;6.23;;;0.93;;
41721;SDS011;27407;24.142;-110.310;2024-01-15T12:22:35;2.33;;;0.50;;
41721;SDS011;27407;24.142;-110.310;2024-01-15T12:25:01;4.50;;;0.97;;
41721;SDS011;27407;24.142;-110.310;2024-01-15T12:27:28;2.03;;;0.60;;
41721;SDS011;27407;24.142;-110.310;2024-01-15T12:29:55;9.63;;;1.10;;
41721;SDS011;27407;24.142;-110.310;2024-01-15T12:32:24;12.93;;;1.10;;
41721;SDS011;27407;24.142;-110.310;2024-01-15T12:34:51;13.90;;;2.57;;
41721;SDS011;27407;24.142;-110.310;2024-01-15T12:37:18;11.70;;;2.63;;
41721;SDS011;27407;24.142;-110.310;2024-01-15T12:39:45;7.23;;;2.50;;
41721;SDS011;27407;24.142;-110.310;2024-01-15T12:42:14;18.33;;;2.87;;
41721;SDS011;27407;24.142;-110.310;2024-01-15T12:44:42;27.60;;;3.90;;
41721;SDS011;27407;24.142;-110.310;2024-01-15T12:47:10;14.17;;;3.10;;
41721;SDS011;27407;24.142;-110.310;2024-01-15T12:49:38;7.43;;;2.43;;
41721;SDS011;27407;24.142;-110.310;2024-01-15T12:52:08;6.17;;;1.20;;
41721;SDS011;27407;24.142;-110.310;2024-01-15T12:54:35;3.60;;;0.93;;
41721;SDS011;27407;24.142;-110.310;2024-01-15T12:57:01;10.23;;;1.03;;
41721;SDS011;27407;24.142;-110.310;2024-01-15T12:59:28;4.07;;;0.63;;
41721;SDS011;27407;24.142;-110.310;2024-01-15T13:01:55;13.70;;;1.10;;
41721;SDS011;27407;24.142;-110.310;2024-01-15T13:04:22;6.03;;;0.73;;
41721;SDS011;27407;24.142;-110.310;2024-01-15T13:06:52;6.07;;;0.50;;
41721;SDS011;27407;24.142;-110.310;2024-01-15T13:09:19;17.13;;;1.20;;
41721;SDS011;27407;24.142;-110.310;2024-01-15T13:11:46;10.17;;;1.10;;
41721;SDS011;27407;24.142;-110.310;2024-01-15T13:14:13;9.70;;;1.57;;
41721;SDS011;27407;24.142;-110.310;2024-01-15T13:16:40;11.70;;;0.80;;
41721;SDS011;27407;24.142;-110.310;2024-01-15T13:19:09;15.60;;;2.20;;
41721;SDS011;27407;24.142;-110.310;2024-01-15T13:21:40;23.73;;;2.20;;
41721;SDS011;27407;24.142;-110.310;2024-01-15T13:24:07;15.63;;;1.60;;
41721;SDS011;27407;24.142;-110.310;2024-01-15T13:26:34;26.17;;;2.10;;
41721;SDS011;27407;24.142;-110.310;2024-01-15T13:29:04;29.43;;;1.70;;
41721;SDS011;27407;24.142;-110.310;2024-01-15T13:31:31;12.27;;;1.70;;
41721;SDS011;27407;24.142;-110.310;2024-01-15T13:33:59;56.13;;;3.47;;
41721;SDS011;27407;24.142;-110.310;2024-01-15T13:36:26;47.90;;;4.47;;
41721;SDS011;27407;24.142;-110.310;2024-01-15T13:38:53;32.53;;;3.07;;
41721;SDS011;27407;24.142;-110.310;2024-01-15T13:41:20;21.87;;;1.83;;
41721;SDS011;27407;24.142;-110.310;2024-01-15T13:43:50;32.57;;;3.17;;
41721;SDS011;27407;24.142;-110.310;2024-01-15T13:46:18;35.90;;;2.73;;
41721;SDS011;27407;24.142;-110.310;2024-01-15T13:48:47;31.20;;;2.67;;
41721;SDS011;27407;24.142;-110.310;2024-01-15T13:51:13;16.93;;;2.13;;
41721;SDS011;27407;24.142;-110.310;2024-01-15T13:53:40;48.23;;;3.90;;
41721;SDS011;27407;24.142;-110.310;2024-01-15T13:56:07;41.23;;;3.40;;
41721;SDS011;27407;24.142;-110.310;2024-01-15T13:58:35;44.83;;;3.60;;
41721;SDS011;27407;24.142;-110.310;2024-01-15T14:01:02;46.00;;;4.07;;
41721;SDS011;27407;24.142;-110.310;2024-01-15T14:03:31;66.00;;;5.40;;
41721;SDS011;27407;24.142;-110.310;2024-01-15T14:05:59;53.67;;;4.60;;
41721;SDS011;27407;24.142;-110.310;2024-01-15T14:08:29;74.77;;;4.90;;
41721;SDS011;27407;24.142;-110.310;2024-01-15T14:10:55;59.37;;;5.20;;
41721;SDS011;27407;24.142;-110.310;2024-01-15T14:13:22;71.40;;;5.60;;
41721;SDS011;27407;24.142;-110.310;2024-01-15T14:15:49;89.37;;;6.37;;
41721;SDS011;27407;24.142;-110.310;2024-01-15T14:18:16;62.97;;;5.57;;
41721;SDS011;27407;24.142;-110.310;2024-01-15T14:20:43;75.93;;;5.80;;
41721;SDS011;27407;24.142;-110.310;2024-01-15T14:23:13;69.77;;;5.17;;